KBTM/BTM METAR and TAF weather

Enter ICAO airport designator
Station Type Date Time Source
KBTM METAR 2019/12/06 03:53 UTC NOAA

KBTM 060353Z AUTO 13003KT 10SM OVC075 M02/M05 A3014 RMK AO2 SLP258 T10221050


Station Type Date Time Source
KBTM Decoded METAR 2019/12/06 03:53 UTC NOAA

BERT MOONEY AIRPORT, MT, United States (KBTM) 45-58N 112-30W 1688M
Dec 05, 2019 - 10:53 PM EST / 2019.12.06 0353 UTC
Wind: from the SE (130 degrees) at 3 MPH (3 KT):0
Visibility: 10 mile(s):0
Sky conditions: overcast
Temperature: 28.0 F (-2.2 C)
Dew Point: 23.0 F (-5.0 C)
Relative Humidity: 81%
Pressure (altimeter): 30.14 in. Hg (1020 hPa)
ob: KBTM 060353Z AUTO 13003KT 10SM OVC075 M02/M05 A3014 RMK AO2 SLP258 T10221050
cycle: 4

Station Type Date Time Source
KBTM TAF 2019/12/05 18:42 UTC NOAA

TAF KBTM 051741Z 0518/0618 00000KT P6SM OVC080

Example: see airport list